sensor_id;sensor_type;location;lat;lon;timestamp;temperature;humidity
32698;DHT22;19087;51.062;3.754;2024-03-23T00:53:33;8.90;99.90
32698;DHT22;19087;51.062;3.754;2024-03-23T00:55:59;9.00;99.90
32698;DHT22;19087;51.062;3.754;2024-03-23T00:58:25;9.10;99.90
32698;DHT22;19087;51.062;3.754;2024-03-23T01:00:53;9.10;99.90
32698;DHT22;19087;51.062;3.754;2024-03-23T01:03:22;9.00;99.90
32698;DHT22;19087;51.062;3.754;2024-03-23T01:05:48;9.20;99.90
32698;DHT22;19087;51.062;3.754;2024-03-23T01:08:19;9.20;99.90
32698;DHT22;19087;51.062;3.754;2024-03-23T01:10:56;9.20;99.90
32698;DHT22;19087;51.062;3.754;2024-03-23T01:13:23;9.30;99.90
32698;DHT22;19087;51.062;3.754;2024-03-23T01:15:51;9.30;99.90
32698;DHT22;19087;51.062;3.754;2024-03-23T01:18:20;9.40;99.90
32698;DHT22;19087;51.062;3.754;2024-03-23T01:20:46;9.40;99.90
32698;DHT22;19087;51.062;3.754;2024-03-23T01:23:12;9.40;99.90
32698;DHT22;19087;51.062;3.754;2024-03-23T01:25:38;9.30;99.90
32698;DHT22;19087;51.062;3.754;2024-03-23T01:28:04;9.40;99.90
32698;DHT22;19087;51.062;3.754;2024-03-23T01:30:30;9.40;99.90
32698;DHT22;19087;51.062;3.754;2024-03-23T01:32:56;9.30;99.90
32698;DHT22;19087;51.062;3.754;2024-03-23T01:35:22;9.30;99.90
32698;DHT22;19087;51.062;3.754;2024-03-23T01:37:47;9.20;99.90
32698;DHT22;19087;51.062;3.754;2024-03-23T01:40:13;9.00;99.90
32698;DHT22;19087;51.062;3.754;2024-03-23T01:42:39;9.00;99.90
32698;DHT22;19087;51.062;3.754;2024-03-23T01:45:10;9.00;99.90
32698;DHT22;19087;51.062;3.754;2024-03-23T01:47:39;9.00;99.90
32698;DHT22;19087;51.062;3.754;2024-03-23T01:50:06;8.90;99.90
32698;DHT22;19087;51.062;3.754;2024-03-23T01:52:32;8.80;99.90
32698;DHT22;19087;51.062;3.754;2024-03-23T01:54:58;8.80;99.90
32698;DHT22;19087;51.062;3.754;2024-03-23T01:57:23;8.70;99.90
32698;DHT22;19087;51.062;3.754;2024-03-23T01:59:51;8.70;99.90
32698;DHT22;19087;51.062;3.754;2024-03-23T02:02:17;8.70;99.90
32698;DHT22;19087;51.062;3.754;2024-03-23T02:04:44;8.80;99.90
32698;DHT22;19087;51.062;3.754;2024-03-23T02:07:09;8.80;99.90
32698;DHT22;19087;51.062;3.754;2024-03-23T02:09:35;8.60;99.90
32698;DHT22;19087;51.062;3.754;2024-03-23T02:12:04;8.70;99.90
32698;DHT22;19087;51.062;3.754;2024-03-23T02:14:30;8.60;99.90
32698;DHT22;19087;51.062;3.754;2024-03-23T02:16:57;8.70;99.90
32698;DHT22;19087;51.062;3.754;2024-03-23T02:22:45;8.80;99.90
32698;DHT22;19087;51.062;3.754;2024-03-23T02:25:10;8.90;99.90
32698;DHT22;19087;51.062;3.754;2024-03-23T02:27:36;8.90;99.90
32698;DHT22;19087;51.062;3.754;2024-03-23T02:30:04;8.90;99.90
32698;DHT22;19087;51.062;3.754;2024-03-23T02:32:33;8.90;99.90
32698;DHT22;19087;51.062;3.754;2024-03-23T02:34:59;9.00;99.90
32698;DHT22;19087;51.062;3.754;2024-03-23T02:37:25;9.00;99.90
32698;DHT22;19087;51.062;3.754;2024-03-23T02:39:52;9.10;99.90
32698;DHT22;19087;51.062;3.754;2024-03-23T02:42:17;9.00;99.90
32698;DHT22;19087;51.062;3.754;2024-03-23T02:44:44;9.10;99.90
32698;DHT22;19087;51.062;3.754;2024-03-23T02:47:10;9.00;99.90
32698;DHT22;19087;51.062;3.754;2024-03-23T02:49:35;9.00;99.90
32698;DHT22;19087;51.062;3.754;2024-03-23T02:52:02;9.10;99.90
32698;DHT22;19087;51.062;3.754;2024-03-23T02:54:28;9.20;99.90
32698;DHT22;19087;51.062;3.754;2024-03-23T02:56:54;9.20;99.90
32698;DHT22;19087;51.062;3.754;2024-03-23T02:59:20;9.20;99.90
32698;DHT22;19087;51.062;3.754;2024-03-23T03:01:45;9.20;99.90
32698;DHT22;19087;51.062;3.754;2024-03-23T03:04:11;9.20;99.90
32698;DHT22;19087;51.062;3.754;2024-03-23T03:06:37;9.20;99.90
32698;DHT22;19087;51.062;3.754;2024-03-23T03:09:03;9.20;99.90
32698;DHT22;19087;51.062;3.754;2024-03-23T03:11:30;9.10;99.90
32698;DHT22;19087;51.062;3.754;2024-03-23T03:13:55;9.00;99.90
32698;DHT22;19087;51.062;3.754;2024-03-23T03:16:21;9.00;99.90
32698;DHT22;19087;51.062;3.754;2024-03-23T03:18:47;9.00;99.90
32698;DHT22;19087;51.062;3.754;2024-03-23T03:21:13;8.80;99.90
32698;DHT22;19087;51.062;3.754;2024-03-23T03:23:40;8.90;99.90
32698;DHT22;19087;51.062;3.754;2024-03-23T03:26:06;8.90;99.90
32698;DHT22;19087;51.062;3.754;2024-03-23T03:28:33;8.90;99.90
32698;DHT22;19087;51.062;3.754;2024-03-23T03:30:59;8.90;99.90
32698;DHT22;19087;51.062;3.754;2024-03-23T03:33:28;8.80;99.90
32698;DHT22;19087;51.062;3.754;2024-03-23T03:35:54;8.80;99.90
32698;DHT22;19087;51.062;3.754;2024-03-23T03:38:20;8.80;99.90
32698;DHT22;19087;51.062;3.754;2024-03-23T03:40:46;8.70;99.90
32698;DHT22;19087;51.062;3.754;2024-03-23T03:43:12;8.70;99.90
32698;DHT22;19087;51.062;3.754;2024-03-23T03:45:38;8.60;99.90
32698;DHT22;19087;51.062;3.754;2024-03-23T03:48:04;8.70;99.90
32698;DHT22;19087;51.062;3.754;2024-03-23T03:50:30;8.70;99.90
32698;DHT22;19087;51.062;3.754;2024-03-23T03:52:56;8.70;99.90
32698;DHT22;19087;51.062;3.754;2024-03-23T03:55:22;8.70;99.90
32698;DHT22;19087;51.062;3.754;2024-03-23T03:57:47;8.70;99.90
32698;DHT22;19087;51.062;3.754;2024-03-23T04:00:13;8.60;99.90
32698;DHT22;19087;51.062;3.754;2024-03-23T04:02:41;8.60;99.90
32698;DHT22;19087;51.062;3.754;2024-03-23T04:05:07;8.60;99.90
32698;DHT22;19087;51.062;3.754;2024-03-23T04:07:33;8.60;99.90
32698;DHT22;19087;51.062;3.754;2024-03-23T04:09:59;8.60;99.90
32698;DHT22;19087;51.062;3.754;2024-03-23T04:12:25;8.60;99.90
32698;DHT22;19087;51.062;3.754;2024-03-23T04:14:52;8.70;99.90
32698;DHT22;19087;51.062;3.754;2024-03-23T04:17:18;8.70;99.90
32698;DHT22;19087;51.062;3.754;2024-03-23T04:19:44;8.70;99.90
32698;DHT22;19087;51.062;3.754;2024-03-23T04:22:11;8.80;99.90
32698;DHT22;19087;51.062;3.754;2024-03-23T04:24:39;8.80;99.90
32698;DHT22;19087;51.062;3.754;2024-03-23T04:27:04;8.70;99.90
32698;DHT22;19087;51.062;3.754;2024-03-23T04:29:31;8.70;99.90
32698;DHT22;19087;51.062;3.754;2024-03-23T04:31:56;8.50;99.90
32698;DHT22;19087;51.062;3.754;2024-03-23T04:34:22;8.50;99.90
32698;DHT22;19087;51.062;3.754;2024-03-23T04:36:50;8.50;99.90
32698;DHT22;19087;51.062;3.754;2024-03-23T04:39:16;8.50;99.90
32698;DHT22;19087;51.062;3.754;2024-03-23T04:41:42;8.40;99.90
32698;DHT22;19087;51.062;3.754;2024-03-23T04:44:08;8.30;99.90
32698;DHT22;19087;51.062;3.754;2024-03-23T04:46:34;8.50;99.90
32698;DHT22;19087;51.062;3.754;2024-03-23T04:48:59;8.40;99.90
32698;DHT22;19087;51.062;3.754;2024-03-23T04:51:25;8.30;99.90
32698;DHT22;19087;51.062;3.754;2024-03-23T04:53:51;8.20;99.90
32698;DHT22;19087;51.062;3.754;2024-03-23T04:56:17;8.30;99.90
32698;DHT22;19087;51.062;3.754;2024-03-23T04:58:44;8.30;99.90
32698;DHT22;19087;51.062;3.754;2024-03-23T05:01:11;8.40;99.90
32698;DHT22;19087;51.062;3.754;2024-03-23T05:03:36;8.40;99.90
32698;DHT22;19087;51.062;3.754;2024-03-23T05:06:03;8.40;99.90
32698;DHT22;19087;51.062;3.754;2024-03-23T05:08:37;8.40;99.90
32698;DHT22;19087;51.062;3.754;2024-03-23T05:11:03;8.40;99.90
32698;DHT22;19087;51.062;3.754;2024-03-23T05:13:32;8.30;99.90
32698;DHT22;19087;51.062;3.754;2024-03-23T05:15:57;8.40;99.90
32698;DHT22;19087;51.062;3.754;2024-03-23T05:18:24;8.40;99.90
32698;DHT22;19087;51.062;3.754;2024-03-23T05:20:56;8.50;99.90
32698;DHT22;19087;51.062;3.754;2024-03-23T05:23:23;8.50;99.90
32698;DHT22;19087;51.062;3.754;2024-03-23T05:25:49;8.30;99.90
32698;DHT22;19087;51.062;3.754;2024-03-23T05:28:15;8.40;99.90
32698;DHT22;19087;51.062;3.754;2024-03-23T05:30:42;8.50;99.90
32698;DHT22;19087;51.062;3.754;2024-03-23T05:33:07;8.50;99.90
32698;DHT22;19087;51.062;3.754;2024-03-23T05:35:33;8.40;99.90
32698;DHT22;19087;51.062;3.754;2024-03-23T05:37:59;8.30;99.90
32698;DHT22;19087;51.062;3.754;2024-03-23T05:40:29;8.30;99.90
32698;DHT22;19087;51.062;3.754;2024-03-23T05:42:55;8.30;99.90
32698;DHT22;19087;51.062;3.754;2024-03-23T05:45:23;8.40;99.90
32698;DHT22;19087;51.062;3.754;2024-03-23T05:47:50;8.40;99.90
32698;DHT22;19087;51.062;3.754;2024-03-23T05:50:16;8.50;99.90
32698;DHT22;19087;51.062;3.754;2024-03-23T05:52:43;8.50;99.90
32698;DHT22;19087;51.062;3.754;2024-03-23T05:55:09;8.50;99.90
32698;DHT22;19087;51.062;3.754;2024-03-23T05:57:34;8.60;99.90
32698;DHT22;19087;51.062;3.754;2024-03-23T06:00:01;8.50;99.90
32698;DHT22;19087;51.062;3.754;2024-03-23T06:02:29;8.40;99.90
32698;DHT22;19087;51.062;3.754;2024-03-23T06:04:54;8.40;99.90
32698;DHT22;19087;51.062;3.754;2024-03-23T06:07:24;8.40;99.90
32698;DHT22;19087;51.062;3.754;2024-03-23T06:09:53;8.50;99.90
32698;DHT22;19087;51.062;3.754;2024-03-23T06:12:20;8.60;99.90
32698;DHT22;19087;51.062;3.754;2024-03-23T06:14:47;8.70;99.90
32698;DHT22;19087;51.062;3.754;2024-03-23T06:17:14;8.70;99.90
32698;DHT22;19087;51.062;3.754;2024-03-23T06:19:40;8.70;99.90
32698;DHT22;19087;51.062;3.754;2024-03-23T06:22:06;8.70;99.90
32698;DHT22;19087;51.062;3.754;2024-03-23T06:24:32;8.60;99.90
32698;DHT22;19087;51.062;3.754;2024-03-23T06:26:58;8.60;99.90
32698;DHT22;19087;51.062;3.754;2024-03-23T06:29:23;8.60;99.90
32698;DHT22;19087;51.062;3.754;2024-03-23T06:31:56;8.40;99.90
32698;DHT22;19087;51.062;3.754;2024-03-23T06:34:22;8.40;99.90
32698;DHT22;19087;51.062;3.754;2024-03-23T06:36:48;8.40;99.90
32698;DHT22;19087;51.062;3.754;2024-03-23T06:39:16;8.30;99.90
32698;DHT22;19087;51.062;3.754;2024-03-23T06:41:45;8.30;99.90
32698;DHT22;19087;51.062;3.754;2024-03-23T06:44:17;8.30;99.90
32698;DHT22;19087;51.062;3.754;2024-03-23T06:46:45;8.20;99.90
32698;DHT22;19087;51.062;3.754;2024-03-23T06:49:11;8.30;99.90
32698;DHT22;19087;51.062;3.754;2024-03-23T06:51:37;8.20;99.90
32698;DHT22;19087;51.062;3.754;2024-03-23T06:54:04;8.30;99.90
32698;DHT22;19087;51.062;3.754;2024-03-23T06:56:30;8.30;99.90
32698;DHT22;19087;51.062;3.754;2024-03-23T06:58:57;8.50;99.90
32698;DHT22;19087;51.062;3.754;2024-03-23T07:01:23;8.80;99.90
32698;DHT22;19087;51.062;3.754;2024-03-23T07:03:48;9.50;99.90
32698;DHT22;19087;51.062;3.754;2024-03-23T07:06:14;10.10;99.90
32698;DHT22;19087;51.062;3.754;2024-03-23T07:08:42;10.80;99.90
32698;DHT22;19087;51.062;3.754;2024-03-23T07:11:08;11.50;99.90
32698;DHT22;19087;51.062;3.754;2024-03-23T07:13:34;11.90;99.90
32698;DHT22;19087;51.062;3.754;2024-03-23T07:16:01;12.10;99.90
32698;DHT22;19087;51.062;3.754;2024-03-23T07:18:28;12.50;99.90
32698;DHT22;19087;51.062;3.754;2024-03-23T07:20:57;12.40;99.90
32698;DHT22;19087;51.062;3.754;2024-03-23T07:23:24;12.20;99.90
32698;DHT22;19087;51.062;3.754;2024-03-23T07:26:02;12.20;99.90
32698;DHT22;19087;51.062;3.754;2024-03-23T07:28:30;12.50;99.90
32698;DHT22;19087;51.062;3.754;2024-03-23T07:31:13;13.10;99.90
32698;DHT22;19087;51.062;3.754;2024-03-23T07:33:44;13.70;99.90
32698;DHT22;19087;51.062;3.754;2024-03-23T07:36:10;13.50;99.90
32698;DHT22;19087;51.062;3.754;2024-03-23T07:38:40;12.80;99.90
32698;DHT22;19087;51.062;3.754;2024-03-23T07:41:07;12.40;99.90
32698;DHT22;19087;51.062;3.754;2024-03-23T07:43:35;12.00;99.90
32698;DHT22;19087;51.062;3.754;2024-03-23T07:46:01;11.40;99.90
32698;DHT22;19087;51.062;3.754;2024-03-23T07:48:29;11.00;99.90
32698;DHT22;19087;51.062;3.754;2024-03-23T07:51:10;10.40;99.90
32698;DHT22;19087;51.062;3.754;2024-03-23T07:53:37;10.10;99.90
32698;DHT22;19087;51.062;3.754;2024-03-23T07:56:06;9.80;99.90
32698;DHT22;19087;51.062;3.754;2024-03-23T07:58:32;9.50;99.90
32698;DHT22;19087;51.062;3.754;2024-03-23T08:01:15;9.80;99.90
32698;DHT22;19087;51.062;3.754;2024-03-23T08:03:45;10.70;99.90
32698;DHT22;19087;51.062;3.754;2024-03-23T08:06:16;11.30;99.90
32698;DHT22;19087;51.062;3.754;2024-03-23T08:08:45;11.90;99.90
32698;DHT22;19087;51.062;3.754;2024-03-23T08:11:11;12.40;99.90
32698;DHT22;19087;51.062;3.754;2024-03-23T08:13:41;12.90;99.90
32698;DHT22;19087;51.062;3.754;2024-03-23T08:16:09;13.30;99.90
32698;DHT22;19087;51.062;3.754;2024-03-23T08:18:35;13.50;99.90
32698;DHT22;19087;51.062;3.754;2024-03-23T08:21:02;13.80;99.90
32698;DHT22;19087;51.062;3.754;2024-03-23T08:23:35;14.00;99.90
32698;DHT22;19087;51.062;3.754;2024-03-23T08:26:06;14.60;99.90
32698;DHT22;19087;51.062;3.754;2024-03-23T08:28:32;15.00;99.90
32698;DHT22;19087;51.062;3.754;2024-03-23T08:31:02;14.70;99.90
32698;DHT22;19087;51.062;3.754;2024-03-23T08:33:28;14.30;99.90
32698;DHT22;19087;51.062;3.754;2024-03-23T08:35:59;13.80;99.90
32698;DHT22;19087;51.062;3.754;2024-03-23T08:38:27;13.60;99.90
32698;DHT22;19087;51.062;3.754;2024-03-23T08:40:59;13.00;99.90
32698;DHT22;19087;51.062;3.754;2024-03-23T08:43:26;12.20;99.90
32698;DHT22;19087;51.062;3.754;2024-03-23T08:45:52;11.30;99.90
32698;DHT22;19087;51.062;3.754;2024-03-23T08:48:22;10.80;99.90
32698;DHT22;19087;51.062;3.754;2024-03-23T08:50:57;10.40;99.90
32698;DHT22;19087;51.062;3.754;2024-03-23T08:53:23;10.30;99.90
32698;DHT22;19087;51.062;3.754;2024-03-23T08:55:58;10.20;99.90
32698;DHT22;19087;51.062;3.754;2024-03-23T08:58:26;10.20;99.90
32698;DHT22;19087;51.062;3.754;2024-03-23T09:00:52;10.40;99.90
32698;DHT22;19087;51.062;3.754;2024-03-23T09:03:25;10.70;99.90
32698;DHT22;19087;51.062;3.754;2024-03-23T09:05:52;10.70;99.90
32698;DHT22;19087;51.062;3.754;2024-03-23T09:08:19;10.70;99.90
32698;DHT22;19087;51.062;3.754;2024-03-23T09:10:44;10.70;99.90
32698;DHT22;19087;51.062;3.754;2024-03-23T09:13:10;10.80;99.90
32698;DHT22;19087;51.062;3.754;2024-03-23T09:15:38;10.80;99.90
32698;DHT22;19087;51.062;3.754;2024-03-23T09:18:10;10.80;99.90
32698;DHT22;19087;51.062;3.754;2024-03-23T09:20:36;10.50;99.90
32698;DHT22;19087;51.062;3.754;2024-03-23T09:23:03;10.60;99.90
32698;DHT22;19087;51.062;3.754;2024-03-23T09:25:29;10.70;99.90
32698;DHT22;19087;51.062;3.754;2024-03-23T09:27:55;10.90;99.90
32698;DHT22;19087;51.062;3.754;2024-03-23T09:30:23;11.10;99.90
32698;DHT22;19087;51.062;3.754;2024-03-23T09:32:48;11.20;99.90
32698;DHT22;19087;51.062;3.754;2024-03-23T09:35:14;11.20;99.90
32698;DHT22;19087;51.062;3.754;2024-03-23T09:37:40;11.20;99.90
32698;DHT22;19087;51.062;3.754;2024-03-23T09:40:12;11.30;99.90
32698;DHT22;19087;51.062;3.754;2024-03-23T09:42:38;11.00;99.90
32698;DHT22;19087;51.062;3.754;2024-03-23T09:45:20;10.80;99.90
32698;DHT22;19087;51.062;3.754;2024-03-23T09:47:47;10.70;99.90
32698;DHT22;19087;51.062;3.754;2024-03-23T09:50:13;10.70;99.90
32698;DHT22;19087;51.062;3.754;2024-03-23T09:52:40;10.40;99.90
32698;DHT22;19087;51.062;3.754;2024-03-23T09:55:08;10.50;99.90
32698;DHT22;19087;51.062;3.754;2024-03-23T09:57:34;10.50;99.90
32698;DHT22;19087;51.062;3.754;2024-03-23T10:00:02;10.70;99.90
32698;DHT22;19087;51.062;3.754;2024-03-23T10:02:29;10.70;99.90
32698;DHT22;19087;51.062;3.754;2024-03-23T10:04:54;10.70;99.90
32698;DHT22;19087;51.062;3.754;2024-03-23T10:07:21;10.80;99.90
32698;DHT22;19087;51.062;3.754;2024-03-23T10:09:51;10.70;99.90
32698;DHT22;19087;51.062;3.754;2024-03-23T10:12:18;10.60;99.90
32698;DHT22;19087;51.062;3.754;2024-03-23T10:14:45;10.60;99.90
32698;DHT22;19087;51.062;3.754;2024-03-23T10:17:22;10.70;99.90
32698;DHT22;19087;51.062;3.754;2024-03-23T10:19:52;10.60;99.90
32698;DHT22;19087;51.062;3.754;2024-03-23T10:22:23;10.60;99.90
32698;DHT22;19087;51.062;3.754;2024-03-23T10:24:50;10.60;99.90
32698;DHT22;19087;51.062;3.754;2024-03-23T10:27:20;10.70;99.90
32698;DHT22;19087;51.062;3.754;2024-03-23T10:29:47;10.70;99.90
32698;DHT22;19087;51.062;3.754;2024-03-23T10:32:14;11.00;99.90
32698;DHT22;19087;51.062;3.754;2024-03-23T10:34:40;11.40;99.90
32698;DHT22;19087;51.062;3.754;2024-03-23T10:37:07;11.60;99.90
32698;DHT22;19087;51.062;3.754;2024-03-23T10:39:36;11.90;99.90
32698;DHT22;19087;51.062;3.754;2024-03-23T10:42:03;12.10;99.90
32698;DHT22;19087;51.062;3.754;2024-03-23T10:44:31;12.20;99.90
32698;DHT22;19087;51.062;3.754;2024-03-23T10:47:06;12.30;99.90
32698;DHT22;19087;51.062;3.754;2024-03-23T10:49:34;12.30;99.90
32698;DHT22;19087;51.062;3.754;2024-03-23T10:52:01;12.30;99.90
32698;DHT22;19087;51.062;3.754;2024-03-23T10:54:27;12.40;99.90
32698;DHT22;19087;51.062;3.754;2024-03-23T10:57:13;12.40;99.90
32698;DHT22;19087;51.062;3.754;2024-03-23T10:59:39;12.40;99.90
32698;DHT22;19087;51.062;3.754;2024-03-23T11:02:06;12.30;99.90
32698;DHT22;19087;51.062;3.754;2024-03-23T11:07:02;11.80;99.90
32698;DHT22;19087;51.062;3.754;2024-03-23T11:09:48;11.80;99.90
32698;DHT22;19087;51.062;3.754;2024-03-23T11:15:02;12.00;99.90
32698;DHT22;19087;51.062;3.754;2024-03-23T11:17:29;12.00;99.90
32698;DHT22;19087;51.062;3.754;2024-03-23T11:19:56;12.00;99.90
32698;DHT22;19087;51.062;3.754;2024-03-23T11:25:24;12.00;99.90
32698;DHT22;19087;51.062;3.754;2024-03-23T11:27:54;12.20;99.90
32698;DHT22;19087;51.062;3.754;2024-03-23T11:30:26;12.20;99.90
32698;DHT22;19087;51.062;3.754;2024-03-23T11:32:53;12.30;99.90
32698;DHT22;19087;51.062;3.754;2024-03-23T11:35:30;12.30;99.90
32698;DHT22;19087;51.062;3.754;2024-03-23T11:38:13;12.60;99.90
32698;DHT22;19087;51.062;3.754;2024-03-23T11:40:47;12.60;99.90
32698;DHT22;19087;51.062;3.754;2024-03-23T11:43:15;12.80;99.90
32698;DHT22;19087;51.062;3.754;2024-03-23T11:45:49;12.80;99.90
32698;DHT22;19087;51.062;3.754;2024-03-23T11:48:23;12.70;99.90
32698;DHT22;19087;51.062;3.754;2024-03-23T11:50:58;12.50;99.90
32698;DHT22;19087;51.062;3.754;2024-03-23T11:53:25;12.50;99.90
32698;DHT22;19087;51.062;3.754;2024-03-23T11:55:56;12.60;99.90
32698;DHT22;19087;51.062;3.754;2024-03-23T11:58:23;12.80;99.90
32698;DHT22;19087;51.062;3.754;2024-03-23T12:00:55;13.10;99.90
32698;DHT22;19087;51.062;3.754;2024-03-23T12:03:21;13.30;99.90
32698;DHT22;19087;51.062;3.754;2024-03-23T12:05:52;13.30;98.10
32698;DHT22;19087;51.062;3.754;2024-03-23T12:08:31;13.10;97.70
32698;DHT22;19087;51.062;3.754;2024-03-23T12:11:06;13.00;98.30
32698;DHT22;19087;51.062;3.754;2024-03-23T12:13:32;12.80;97.70
32698;DHT22;19087;51.062;3.754;2024-03-23T12:16:19;12.40;98.60
32698;DHT22;19087;51.062;3.754;2024-03-23T12:18:49;12.30;99.80
32698;DHT22;19087;51.062;3.754;2024-03-23T12:21:15;12.20;99.60
32698;DHT22;19087;51.062;3.754;2024-03-23T12:23:44;12.20;99.90
32698;DHT22;19087;51.062;3.754;2024-03-23T12:26:12;12.20;98.40
32698;DHT22;19087;51.062;3.754;2024-03-23T12:28:39;12.40;97.80
32698;DHT22;19087;51.062;3.754;2024-03-23T12:31:05;12.50;97.60
32698;DHT22;19087;51.062;3.754;2024-03-23T12:33:32;12.50;98.40
32698;DHT22;19087;51.062;3.754;2024-03-23T12:35:58;12.40;97.50
32698;DHT22;19087;51.062;3.754;2024-03-23T12:38:26;12.60;97.80
32698;DHT22;19087;51.062;3.754;2024-03-23T12:40:55;12.60;98.30
32698;DHT22;19087;51.062;3.754;2024-03-23T12:43:22;12.60;97.90
32698;DHT22;19087;51.062;3.754;2024-03-23T12:45:51;12.70;97.90
32698;DHT22;19087;51.062;3.754;2024-03-23T12:48:17;12.80;97.90
32698;DHT22;19087;51.062;3.754;2024-03-23T12:50:43;12.90;97.80
32698;DHT22;19087;51.062;3.754;2024-03-23T12:53:09;12.80;97.90
32698;DHT22;19087;51.062;3.754;2024-03-23T12:55:38;12.90;98.30
32698;DHT22;19087;51.062;3.754;2024-03-23T12:58:03;13.20;98.20
32698;DHT22;19087;51.062;3.754;2024-03-23T13:00:30;13.50;97.60
32698;DHT22;19087;51.062;3.754;2024-03-23T13:02:56;13.80;96.00
32698;DHT22;19087;51.062;3.754;2024-03-23T13:05:21;14.10;95.90
32698;DHT22;19087;51.062;3.754;2024-03-23T13:07:48;14.20;96.80
32698;DHT22;19087;51.062;3.754;2024-03-23T13:10:17;14.20;98.00
32698;DHT22;19087;51.062;3.754;2024-03-23T13:12:44;14.10;97.60
32698;DHT22;19087;51.062;3.754;2024-03-23T13:15:13;14.10;97.80
32698;DHT22;19087;51.062;3.754;2024-03-23T13:17:42;14.10;97.10
32698;DHT22;19087;51.062;3.754;2024-03-23T13:20:09;14.00;97.10
32698;DHT22;19087;51.062;3.754;2024-03-23T13:22:39;13.70;97.20
32698;DHT22;19087;51.062;3.754;2024-03-23T13:25:05;13.40;97.70
32698;DHT22;19087;51.062;3.754;2024-03-23T13:27:35;13.20;98.10
32698;DHT22;19087;51.062;3.754;2024-03-23T13:30:01;13.10;97.30
32698;DHT22;19087;51.062;3.754;2024-03-23T13:32:29;13.20;97.60
32698;DHT22;19087;51.062;3.754;2024-03-23T13:34:55;13.00;97.80
32698;DHT22;19087;51.062;3.754;2024-03-23T13:37:21;12.90;97.30
32698;DHT22;19087;51.062;3.754;2024-03-23T13:39:47;12.90;96.40
32698;DHT22;19087;51.062;3.754;2024-03-23T13:42:13;12.70;96.10
32698;DHT22;19087;51.062;3.754;2024-03-23T13:44:38;12.60;96.20
32698;DHT22;19087;51.062;3.754;2024-03-23T13:47:05;12.90;95.50
32698;DHT22;19087;51.062;3.754;2024-03-23T13:49:31;12.90;95.70
32698;DHT22;19087;51.062;3.754;2024-03-23T13:52:01;12.90;95.80
32698;DHT22;19087;51.062;3.754;2024-03-23T13:54:27;12.90;95.20
32698;DHT22;19087;51.062;3.754;2024-03-23T13:56:55;12.90;95.50
32698;DHT22;19087;51.062;3.754;2024-03-23T13:59:22;12.90;96.00
32698;DHT22;19087;51.062;3.754;2024-03-23T14:01:52;13.10;96.50
32698;DHT22;19087;51.062;3.754;2024-03-23T14:04:18;13.20;96.30
32698;DHT22;19087;51.062;3.754;2024-03-23T14:06:46;13.20;96.30
32698;DHT22;19087;51.062;3.754;2024-03-23T14:09:13;13.30;96.20
32698;DHT22;19087;51.062;3.754;2024-03-23T14:11:40;13.30;95.70
32698;DHT22;19087;51.062;3.754;2024-03-23T14:14:08;13.60;95.90
32698;DHT22;19087;51.062;3.754;2024-03-23T14:16:35;13.60;95.20
32698;DHT22;19087;51.062;3.754;2024-03-23T14:19:01;13.40;95.20
32698;DHT22;19087;51.062;3.754;2024-03-23T14:21:27;13.30;95.10
32698;DHT22;19087;51.062;3.754;2024-03-23T14:23:53;13.40;95.20
32698;DHT22;19087;51.062;3.754;2024-03-23T14:26:20;13.20;95.20
32698;DHT22;19087;51.062;3.754;2024-03-23T14:28:46;13.10;95.40
32698;DHT22;19087;51.062;3.754;2024-03-23T14:31:12;13.20;95.30
32698;DHT22;19087;51.062;3.754;2024-03-23T14:33:39;13.00;95.60
32698;DHT22;19087;51.062;3.754;2024-03-23T14:36:10;13.10;95.60
32698;DHT22;19087;51.062;3.754;2024-03-23T14:38:36;12.90;94.90
32698;DHT22;19087;51.062;3.754;2024-03-23T14:41:03;12.80;95.20
32698;DHT22;19087;51.062;3.754;2024-03-23T14:43:29;12.80;95.50
32698;DHT22;19087;51.062;3.754;2024-03-23T14:46:11;12.70;96.20
32698;DHT22;19087;51.062;3.754;2024-03-23T14:48:39;12.60;97.40
32698;DHT22;19087;51.062;3.754;2024-03-23T14:51:10;12.50;97.50
32698;DHT22;19087;51.062;3.754;2024-03-23T14:53:41;12.60;97.70
32698;DHT22;19087;51.062;3.754;2024-03-23T14:56:10;12.30;97.40
32698;DHT22;19087;51.062;3.754;2024-03-23T14:58:38;12.20;96.70
32698;DHT22;19087;51.062;3.754;2024-03-23T15:01:15;12.00;96.10
32698;DHT22;19087;51.062;3.754;2024-03-23T15:03:43;11.90;96.50
32698;DHT22;19087;51.062;3.754;2024-03-23T15:06:10;11.80;96.60
32698;DHT22;19087;51.062;3.754;2024-03-23T15:08:36;11.60;96.10
32698;DHT22;19087;51.062;3.754;2024-03-23T15:11:03;11.60;96.30
32698;DHT22;19087;51.062;3.754;2024-03-23T15:13:35;11.70;97.20
32698;DHT22;19087;51.062;3.754;2024-03-23T15:16:02;11.80;97.80
32698;DHT22;19087;51.062;3.754;2024-03-23T15:18:31;11.90;98.00
32698;DHT22;19087;51.062;3.754;2024-03-23T15:20:59;11.90;98.50
32698;DHT22;19087;51.062;3.754;2024-03-23T15:23:32;11.90;99.60
32698;DHT22;19087;51.062;3.754;2024-03-23T15:25:59;11.90;99.90
32698;DHT22;19087;51.062;3.754;2024-03-23T15:28:26;11.90;99.90
32698;DHT22;19087;51.062;3.754;2024-03-23T15:31:05;12.10;99.90
32698;DHT22;19087;51.062;3.754;2024-03-23T15:33:31;12.20;99.90
32698;DHT22;19087;51.062;3.754;2024-03-23T15:36:01;12.10;99.90
32698;DHT22;19087;51.062;3.754;2024-03-23T15:38:32;12.00;99.80
32698;DHT22;19087;51.062;3.754;2024-03-23T15:41:01;12.00;99.90
32698;DHT22;19087;51.062;3.754;2024-03-23T15:43:33;11.90;99.90
32698;DHT22;19087;51.062;3.754;2024-03-23T15:46:00;11.90;99.90
32698;DHT22;19087;51.062;3.754;2024-03-23T15:48:30;11.80;99.90
32698;DHT22;19087;51.062;3.754;2024-03-23T15:50:58;11.50;99.90
32698;DHT22;19087;51.062;3.754;2024-03-23T15:53:26;11.20;99.90
32698;DHT22;19087;51.062;3.754;2024-03-23T15:56:04;11.00;99.90
32698;DHT22;19087;51.062;3.754;2024-03-23T15:58:32;10.90;99.90
32698;DHT22;19087;51.062;3.754;2024-03-23T16:00:59;10.90;99.90
32698;DHT22;19087;51.062;3.754;2024-03-23T16:03:26;10.80;99.90
32698;DHT22;19087;51.062;3.754;2024-03-23T16:05:56;10.60;99.90
32698;DHT22;19087;51.062;3.754;2024-03-23T16:08:25;10.60;99.90
32698;DHT22;19087;51.062;3.754;2024-03-23T16:10:58;10.60;99.90
32698;DHT22;19087;51.062;3.754;2024-03-23T16:13:24;10.40;99.90
32698;DHT22;19087;51.062;3.754;2024-03-23T16:15:57;10.30;99.90
32698;DHT22;19087;51.062;3.754;2024-03-23T16:18:23;10.10;99.90
32698;DHT22;19087;51.062;3.754;2024-03-23T16:20:57;10.00;99.90
32698;DHT22;19087;51.062;3.754;2024-03-23T16:23:24;9.90;99.90
32698;DHT22;19087;51.062;3.754;2024-03-23T16:25:51;9.70;99.90
32698;DHT22;19087;51.062;3.754;2024-03-23T16:28:33;9.70;99.90
32698;DHT22;19087;51.062;3.754;2024-03-23T16:31:09;9.60;99.90
32698;DHT22;19087;51.062;3.754;2024-03-23T16:33:38;9.60;99.90
32698;DHT22;19087;51.062;3.754;2024-03-23T16:36:08;9.50;99.90
32698;DHT22;19087;51.062;3.754;2024-03-23T16:38:41;9.30;99.90
32698;DHT22;19087;51.062;3.754;2024-03-23T16:41:14;9.20;99.90
32698;DHT22;19087;51.062;3.754;2024-03-23T16:43:43;9.00;99.90
32698;DHT22;19087;51.062;3.754;2024-03-23T16:46:13;8.90;99.90